nws-alerts: Checking more than four warning/county codes can delay the loading of your pages. You should use a cron job to get the data.

Nearby METAR Reports

 

KFCI - Richmond/Chester, Virginia, USA
Distance from station: ESE 7mi, 11km
Updated: Sun, 26-Sep-2021 12:56am EDT
Clear
Clear
 Wind from varies
Wind: varies 7 mph , 11 km/h
Temperature: 57°F , 14°C
Dew Point: 55°F , 13°C
Humidity: 94%
Barometer: 30.00 inHg , 1015.9 hPa
Clouds: Clear
Visibility: 10 miles , 16 km
2021/09/26 04:56 KFCI 260456Z AUTO VRB06KT 10SM CLR 14/13 A3000 RMK AO2 SLP167 T01440128
KRIC - Richmond, Virginia, USA
Distance from station: ENE 19mi, 30km
Updated: Sun, 26-Sep-2021 12:54am EDT
Few Clouds
Few Clouds
 Wind from SW
Wind: SW 5 mph , 7 km/h
Temperature: 59°F , 15°C
Dew Point: 54°F , 12°C
Humidity: 82%
Barometer: 29.99 inHg , 1015.6 hPa
Clouds: Few Clouds
Visibility: 10 miles , 16 km
Cloud details: Few Clouds 6000 ft
2021/09/26 04:54 KRIC 260454Z 23004KT 10SM FEW060 15/12 A2999 RMK AO2 SLP157 T01500122 402560117
 
KPTB - Petersburg, Virginia, USA
Distance from station: SSE 19mi, 31km
Updated: Sun, 26-Sep-2021 1:35am EDT
Clear
Clear
 Wind from WSW
Wind: WSW 5 mph , 7 km/h
Temperature: 55°F , 13°C
Dew Point: 52°F , 11°C
Humidity: 88%
Barometer: 30.00 inHg , 1015.9 hPa
Clouds: Clear
Visibility: 10 miles , 16 km
2021/09/26 05:35 KPTB 260535Z AUTO 25004KT 10SM CLR 13/11 A3000 RMK AO2 T01250110 TSNO
KOFP - Richmond/Hanover, Virginia, USA
Distance from station: NNE 22mi, 36km
Updated: Sun, 26-Sep-2021 12:54am EDT
Clear
Clear
 Wind from calm
Wind: Calm
Temperature: 57°F , 14°C
Dew Point: 55°F , 13°C
Humidity: 94%
Barometer: 30.00 inHg , 1015.9 hPa
Clouds: Clear
Visibility: 9 miles , 14 km
2021/09/26 04:54 KOFP 260454Z AUTO 00000KT 9SM CLR 14/13 A3000 RMK AO2 SLP155 T01390128 402440094
 
KW96 - Quinton, Virginia, USA
Distance from station: E 28mi, 46km
Updated: Sat, 25-Sep-2021 1:35am EDT
NOT Current
Clear
Clear
 Wind from calm
Wind: Calm
Temperature: 52°F , 11°C
Dew Point: 52°F , 11°C
Humidity: 100%
Barometer: 30.08 inHg , 1018.6 hPa
Clouds: Clear
Visibility: 10 miles , 16 km
2021/09/25 05:35 KW96 250535Z AUTO 00000KT 10SM CLR 11/11 A3008 RMK AO1 T01110111
KBKT - Blackstone Army, Virginia, USA
Distance from station: SW 30mi, 48km
Updated: Sun, 26-Sep-2021 1:35am EDT
Clear
Clear
 Wind from WNW
Wind: WNW 3 mph , 6 km/h
Temperature: 57°F , 14°C
Dew Point: 54°F , 12°C
Humidity: 88%
Barometer: 30.01 inHg , 1016.3 hPa
Clouds: Clear
Visibility: 10 miles , 16 km
2021/09/26 05:35 KBKT 260535Z AUTO 30003KT 10SM CLR 14/12 A3001 RMK AO1 T01380115
 
KW81 - Crewe, Virginia, USA
Distance from station: SW 30mi, 49km
Updated: Sun, 26-Sep-2021 1:35am EDT
Clear
Clear
 Wind from WNW
Wind: WNW 5 mph , 7 km/h
Temperature: 57°F , 14°C
Dew Point: 52°F , 11°C
Humidity: 82%
Barometer: 30.01 inHg , 1016.3 hPa
Clouds: Clear
Visibility: 10 miles , 16 km
2021/09/26 05:35 KW81 260535Z AUTO 30004KT 10SM CLR 14/11 A3001 RMK AO1 T01350110
K7W4 - Bumpass, Virginia, USA
Distance from station: N 38mi, 61km
Updated: Sun, 26-Sep-2021 1:35am EDT
Partly cloudy
Partly cloudy
 Wind from calm
Wind: Calm
Temperature: 55°F , 13°C
Dew Point: 54°F , 12°C
Humidity: 94%
Barometer: 30.00 inHg , 1015.9 hPa
Clouds: Partly cloudy
Visibility: 10 miles , 16 km
Cloud details: Partly cloudy 6000 ft
Partly cloudy 7000 ft
2021/09/26 05:35 K7W4 260535Z AUTO 00000KT 10SM SCT060 SCT070 13/12 A3000 RMK AO1 T01270120
 
KFVX - Farmville, Virginia, USA
Distance from station: W 43mi, 69km
Updated: Sun, 26-Sep-2021 1:35am EDT

 Wind from calm
Wind: Calm
Temperature: 54°F , 12°C
Dew Point: 52°F , 11°C
Humidity: 94%
Barometer: 30.01 inHg , 1016.3 hPa
2021/09/26 05:35 KFVX 260535Z AUTO 00000KT 12/11 A3001 RMK AO2 T01150106 PWINO
KW31 - Kenbridge, Virginia, USA
Distance from station: SW 43mi, 70km
Updated: Sun, 26-Sep-2021 1:35am EDT
Clear
Clear
 Wind from calm
Wind: Calm
Temperature: 57°F , 14°C
Dew Point: 52°F , 11°C
Humidity: 82%
Barometer: 30.02 inHg , 1016.6 hPa
Clouds: Clear
Visibility: 10 miles , 16 km
2021/09/26 05:35 KW31 260535Z AUTO 00000KT 10SM CLR 14/11 A3002 RMK AO1 T01410112
 
KLKU - Louisa, Virginia, USA
Distance from station: NNW 44mi, 72km
Updated: Sun, 26-Sep-2021 1:35am EDT
Clear
Clear
 Wind from W
Wind: W 5 mph , 7 km/h
Temperature: 54°F , 12°C
Dew Point: 54°F , 12°C
Humidity: 100%
Barometer: 30.04 inHg , 1017.3 hPa
Clouds: Clear
Visibility: 10 miles , 16 km
2021/09/26 05:35 KLKU 260535Z AUTO 27004KT 10SM CLR 12/12 A3004 RMK AO2 T01240118
KLVL - Lawrenceville, Virginia, USA
Distance from station: S 46mi, 75km
Updated: Sun, 26-Sep-2021 1:35am EDT
Clear
Clear
 Wind from calm
Wind: Calm
Temperature: 55°F , 13°C
Dew Point: 54°F , 12°C
Humidity: 94%
Barometer: 30.02 inHg , 1016.6 hPa
Clouds: Clear
Visibility: 10 miles , 16 km
2021/09/26 05:35 KLVL 260535Z AUTO 00000KT 10SM CLR 13/12 A3002 RMK AO1 T01260121
 
KAKQ - Norfolk/Wakefld, Virginia, USA
Distance from station: SE 47mi, 75km
Updated: Sun, 26-Sep-2021 12:54am EDT
Clear
Clear
 Wind from calm
Wind: Calm
Temperature: 57°F , 14°C
Dew Point: 55°F , 13°C
Humidity: 94%
Barometer: 29.99 inHg , 1015.6 hPa
Clouds: Clear
Visibility: 10 miles , 16 km
2021/09/26 04:54 KAKQ 260454Z AUTO 00000KT 10SM CLR 14/13 A2999 RMK AO2 SLP155 T01390128 402560100 $
KFYJ - West Point, Virginia, USA
Distance from station: E 48mi, 78km
Updated: Sun, 26-Sep-2021 1:35am EDT

 Wind from calm
Wind: Calm
Temperature: 54°F , 12°C
Dew Point: 54°F , 12°C
Humidity: 100%
Barometer: 29.97 inHg , 1014.9 hPa
2021/09/26 05:35 KFYJ 260535Z AUTO 00000KT 12/12 A2997 RMK AO1 T01210116